sensor_id;sensor_type;location;lat;lon;timestamp;pressure;altitude;pressure_sealevel;temperature;humidity
63395;BME280;49531;-34.520;150.798;2023-08-08T00:00:37;102314.97;;;19.02;51.80
63395;BME280;49531;-34.520;150.798;2023-08-08T00:03:05;102306.00;;;19.08;51.73
63395;BME280;49531;-34.520;150.798;2023-08-08T00:05:32;102310.78;;;19.13;51.69
63395;BME280;49531;-34.520;150.798;2023-08-08T00:07:59;102310.75;;;19.19;51.70
63395;BME280;49531;-34.520;150.798;2023-08-08T00:10:26;102310.94;;;19.24;51.46
63395;BME280;49531;-34.520;150.798;2023-08-08T00:12:53;102311.97;;;19.30;51.37
63395;BME280;49531;-34.520;150.798;2023-08-08T00:15:20;102315.50;;;19.30;51.40
63395;BME280;49531;-34.520;150.798;2023-08-08T00:17:47;102313.00;;;19.36;51.27
63395;BME280;49531;-34.520;150.798;2023-08-08T00:20:14;102312.75;;;19.44;51.32
63395;BME280;49531;-34.520;150.798;2023-08-08T00:22:42;102304.00;;;19.48;51.31
63395;BME280;49531;-34.520;150.798;2023-08-08T00:25:09;102297.34;;;19.51;51.19
63395;BME280;49531;-34.520;150.798;2023-08-08T00:27:36;102298.59;;;19.55;51.01
63395;BME280;49531;-34.520;150.798;2023-08-08T00:30:09;102290.22;;;19.56;50.88
63395;BME280;49531;-34.520;150.798;2023-08-08T00:32:36;102299.34;;;19.62;50.71
63395;BME280;49531;-34.520;150.798;2023-08-08T00:35:03;102297.25;;;19.64;50.27
63395;BME280;49531;-34.520;150.798;2023-08-08T00:37:31;102294.94;;;19.68;50.50
63395;BME280;49531;-34.520;150.798;2023-08-08T00:39:58;102287.66;;;19.68;50.46
63395;BME280;49531;-34.520;150.798;2023-08-08T00:42:25;102283.84;;;19.76;50.39
63395;BME280;49531;-34.520;150.798;2023-08-08T00:44:52;102289.25;;;19.82;50.31
63395;BME280;49531;-34.520;150.798;2023-08-08T00:47:19;102283.41;;;19.85;50.30
63395;BME280;49531;-34.520;150.798;2023-08-08T00:49:46;102286.94;;;19.86;50.25
63395;BME280;49531;-34.520;150.798;2023-08-08T00:52:15;102275.88;;;19.87;50.27
63395;BME280;49531;-34.520;150.798;2023-08-08T00:54:42;102291.50;;;19.92;50.40
63395;BME280;49531;-34.520;150.798;2023-08-08T00:57:09;102287.28;;;19.96;50.04
63395;BME280;49531;-34.520;150.798;2023-08-08T00:59:37;102286.88;;;19.99;50.15
63395;BME280;49531;-34.520;150.798;2023-08-08T01:02:04;102284.50;;;20.03;50.09
63395;BME280;49531;-34.520;150.798;2023-08-08T01:04:31;102284.50;;;20.03;50.11
63395;BME280;49531;-34.520;150.798;2023-08-08T01:07:15;102278.88;;;20.04;49.85
63395;BME280;49531;-34.520;150.798;2023-08-08T01:09:57;102270.28;;;20.07;49.94
63395;BME280;49531;-34.520;150.798;2023-08-08T01:12:30;102276.94;;;20.11;49.57
63395;BME280;49531;-34.520;150.798;2023-08-08T01:14:58;102265.25;;;20.11;49.84
63395;BME280;49531;-34.520;150.798;2023-08-08T01:17:25;102266.06;;;20.18;49.89
63395;BME280;49531;-34.520;150.798;2023-08-08T01:19:52;102268.31;;;20.21;49.42
63395;BME280;49531;-34.520;150.798;2023-08-08T01:22:32;102259.34;;;20.20;49.56
63395;BME280;49531;-34.520;150.798;2023-08-08T01:25:02;102254.75;;;20.21;49.45
63395;BME280;49531;-34.520;150.798;2023-08-08T01:27:31;102249.94;;;20.23;49.43
63395;BME280;49531;-34.520;150.798;2023-08-08T01:29:58;102248.91;;;20.24;49.29
63395;BME280;49531;-34.520;150.798;2023-08-08T01:32:25;102244.31;;;20.24;49.20
63395;BME280;49531;-34.520;150.798;2023-08-08T01:34:52;102239.69;;;20.25;49.45
63395;BME280;49531;-34.520;150.798;2023-08-08T01:37:25;102232.63;;;20.24;49.42
63395;BME280;49531;-34.520;150.798;2023-08-08T01:39:59;102223.38;;;20.31;48.74
63395;BME280;49531;-34.520;150.798;2023-08-08T01:42:27;102220.66;;;20.31;48.67
63395;BME280;49531;-34.520;150.798;2023-08-08T01:44:56;102218.16;;;20.30;49.03
63395;BME280;49531;-34.520;150.798;2023-08-08T01:47:23;102212.50;;;20.31;48.87
63395;BME280;49531;-34.520;150.798;2023-08-08T01:49:50;102220.00;;;20.36;48.94
63395;BME280;49531;-34.520;150.798;2023-08-08T01:52:17;102214.41;;;20.31;49.04
63395;BME280;49531;-34.520;150.798;2023-08-08T01:54:45;102212.56;;;20.25;49.04
63395;BME280;49531;-34.520;150.798;2023-08-08T01:57:12;102199.63;;;20.27;49.02
63395;BME280;49531;-34.520;150.798;2023-08-08T01:59:39;102194.56;;;20.30;48.88
63395;BME280;49531;-34.520;150.798;2023-08-08T02:02:06;102202.50;;;20.32;48.61
63395;BME280;49531;-34.520;150.798;2023-08-08T02:04:33;102192.44;;;20.39;48.38
63395;BME280;49531;-34.520;150.798;2023-08-08T02:07:00;102193.00;;;20.41;47.92
63395;BME280;49531;-34.520;150.798;2023-08-08T02:09:27;102180.28;;;20.42;48.01
63395;BME280;49531;-34.520;150.798;2023-08-08T02:11:54;102179.91;;;20.38;48.27
63395;BME280;49531;-34.520;150.798;2023-08-08T02:14:22;102176.72;;;20.41;48.26
63395;BME280;49531;-34.520;150.798;2023-08-08T02:16:49;102174.00;;;20.41;48.02
63395;BME280;49531;-34.520;150.798;2023-08-08T02:19:16;102166.72;;;20.42;48.08
63395;BME280;49531;-34.520;150.798;2023-08-08T02:21:43;102167.75;;;20.41;47.96
63395;BME280;49531;-34.520;150.798;2023-08-08T02:24:12;102158.34;;;20.43;47.83
63395;BME280;49531;-34.520;150.798;2023-08-08T02:26:39;102148.09;;;20.45;47.89
63395;BME280;49531;-34.520;150.798;2023-08-08T02:29:06;102143.94;;;20.43;47.90
63395;BME280;49531;-34.520;150.798;2023-08-08T02:31:33;102147.34;;;20.38;48.13
63395;BME280;49531;-34.520;150.798;2023-08-08T02:34:00;102140.78;;;20.46;47.53
63395;BME280;49531;-34.520;150.798;2023-08-08T02:36:27;102137.69;;;20.42;47.76
63395;BME280;49531;-34.520;150.798;2023-08-08T02:38:54;102140.25;;;20.37;47.86
63395;BME280;49531;-34.520;150.798;2023-08-08T02:41:21;102137.22;;;20.45;47.44
63395;BME280;49531;-34.520;150.798;2023-08-08T02:43:48;102141.38;;;20.48;47.31
63395;BME280;49531;-34.520;150.798;2023-08-08T02:46:16;102136.78;;;20.48;47.26
63395;BME280;49531;-34.520;150.798;2023-08-08T02:48:43;102138.28;;;20.44;47.62
63395;BME280;49531;-34.520;150.798;2023-08-08T02:51:10;102139.94;;;20.45;46.88
63395;BME280;49531;-34.520;150.798;2023-08-08T02:53:37;102122.59;;;20.46;45.83
63395;BME280;49531;-34.520;150.798;2023-08-08T02:56:04;102131.81;;;20.45;46.31
63395;BME280;49531;-34.520;150.798;2023-08-08T02:58:31;102115.75;;;20.44;46.67
63395;BME280;49531;-34.520;150.798;2023-08-08T03:00:58;102118.75;;;20.36;45.58
63395;BME280;49531;-34.520;150.798;2023-08-08T03:03:25;102124.81;;;20.38;46.08
63395;BME280;49531;-34.520;150.798;2023-08-08T03:05:52;102110.00;;;20.34;45.63
63395;BME280;49531;-34.520;150.798;2023-08-08T03:08:19;102120.25;;;20.31;45.62
63395;BME280;49531;-34.520;150.798;2023-08-08T03:10:46;102102.91;;;20.33;45.12
63395;BME280;49531;-34.520;150.798;2023-08-08T03:13:13;102111.44;;;20.36;45.44
63395;BME280;49531;-34.520;150.798;2023-08-08T03:15:41;102099.16;;;20.34;45.60
63395;BME280;49531;-34.520;150.798;2023-08-08T03:18:08;102093.94;;;20.32;45.55
63395;BME280;49531;-34.520;150.798;2023-08-08T03:20:35;102092.44;;;20.36;45.45
63395;BME280;49531;-34.520;150.798;2023-08-08T03:23:02;102097.25;;;20.34;44.91
63395;BME280;49531;-34.520;150.798;2023-08-08T03:25:30;102094.56;;;20.34;44.41
63395;BME280;49531;-34.520;150.798;2023-08-08T03:27:57;102083.53;;;20.29;44.92
63395;BME280;49531;-34.520;150.798;2023-08-08T03:30:24;102083.53;;;20.29;44.65
63395;BME280;49531;-34.520;150.798;2023-08-08T03:32:51;102087.00;;;20.18;45.67
63395;BME280;49531;-34.520;150.798;2023-08-08T03:35:18;102079.00;;;20.23;45.80
63395;BME280;49531;-34.520;150.798;2023-08-08T03:37:45;102080.66;;;20.24;45.51
63395;BME280;49531;-34.520;150.798;2023-08-08T03:40:12;102087.09;;;20.29;44.61
63395;BME280;49531;-34.520;150.798;2023-08-08T03:42:41;102078.25;;;20.16;45.12
63395;BME280;49531;-34.520;150.798;2023-08-08T03:45:08;102080.91;;;20.22;45.38
63395;BME280;49531;-34.520;150.798;2023-08-08T03:47:35;102080.22;;;20.27;45.47
63395;BME280;49531;-34.520;150.798;2023-08-08T03:50:03;102089.56;;;20.31;45.57
63395;BME280;49531;-34.520;150.798;2023-08-08T03:52:30;102093.13;;;20.50;43.65
63395;BME280;49531;-34.520;150.798;2023-08-08T03:55:00;102090.63;;;20.48;44.54
63395;BME280;49531;-34.520;150.798;2023-08-08T03:57:28;102079.69;;;20.37;44.21
63395;BME280;49531;-34.520;150.798;2023-08-08T03:59:55;102079.25;;;20.40;45.10
63395;BME280;49531;-34.520;150.798;2023-08-08T04:02:22;102081.06;;;20.46;44.16
63395;BME280;49531;-34.520;150.798;2023-08-08T04:04:49;102076.00;;;20.49;43.94
63395;BME280;49531;-34.520;150.798;2023-08-08T04:07:16;102068.31;;;20.46;43.47
63395;BME280;49531;-34.520;150.798;2023-08-08T04:09:43;102069.84;;;20.42;43.82
63395;BME280;49531;-34.520;150.798;2023-08-08T04:12:10;102070.53;;;20.38;44.04
63395;BME280;49531;-34.520;150.798;2023-08-08T04:14:37;102077.38;;;20.40;44.40
63395;BME280;49531;-34.520;150.798;2023-08-08T04:17:04;102063.41;;;20.37;44.81
63395;BME280;49531;-34.520;150.798;2023-08-08T04:19:31;102065.53;;;20.35;45.60
63395;BME280;49531;-34.520;150.798;2023-08-08T04:21:58;102060.94;;;20.35;45.14
63395;BME280;49531;-34.520;150.798;2023-08-08T04:24:25;102063.50;;;20.30;44.63
63395;BME280;49531;-34.520;150.798;2023-08-08T04:26:53;102068.91;;;20.30;44.74
63395;BME280;49531;-34.520;150.798;2023-08-08T04:29:20;102063.72;;;20.28;44.98
63395;BME280;49531;-34.520;150.798;2023-08-08T04:31:48;102058.06;;;20.30;44.77
63395;BME280;49531;-34.520;150.798;2023-08-08T04:34:15;102056.41;;;20.29;45.14
63395;BME280;49531;-34.520;150.798;2023-08-08T04:36:43;102051.06;;;20.41;45.06
63395;BME280;49531;-34.520;150.798;2023-08-08T04:39:10;102053.19;;;20.39;45.03
63395;BME280;49531;-34.520;150.798;2023-08-08T04:41:37;102056.25;;;20.42;45.03
63395;BME280;49531;-34.520;150.798;2023-08-08T04:44:04;102058.81;;;20.37;45.61
63395;BME280;49531;-34.520;150.798;2023-08-08T04:46:31;102059.06;;;20.36;45.83
63395;BME280;49531;-34.520;150.798;2023-08-08T04:48:58;102064.06;;;20.39;45.95
63395;BME280;49531;-34.520;150.798;2023-08-08T04:51:25;102052.13;;;20.40;45.72
63395;BME280;49531;-34.520;150.798;2023-08-08T04:53:52;102057.31;;;20.41;45.74
63395;BME280;49531;-34.520;150.798;2023-08-08T04:56:20;102050.84;;;20.42;45.92
63395;BME280;49531;-34.520;150.798;2023-08-08T04:58:47;102044.56;;;20.42;45.89
63395;BME280;49531;-34.520;150.798;2023-08-08T05:01:14;102051.66;;;20.43;45.99
63395;BME280;49531;-34.520;150.798;2023-08-08T05:03:43;102047.28;;;20.42;46.19
63395;BME280;49531;-34.520;150.798;2023-08-08T05:06:10;102054.16;;;20.44;45.99
63395;BME280;49531;-34.520;150.798;2023-08-08T05:08:41;102050.38;;;20.45;46.20
63395;BME280;49531;-34.520;150.798;2023-08-08T05:11:08;102056.88;;;20.44;46.13
63395;BME280;49531;-34.520;150.798;2023-08-08T05:13:35;102050.97;;;20.47;46.34
63395;BME280;49531;-34.520;150.798;2023-08-08T05:16:02;102052.63;;;20.48;46.33
63395;BME280;49531;-34.520;150.798;2023-08-08T05:18:32;102057.47;;;20.46;46.39
63395;BME280;49531;-34.520;150.798;2023-08-08T05:20:59;102055.81;;;20.45;46.44
63395;BME280;49531;-34.520;150.798;2023-08-08T05:23:26;102063.34;;;20.43;46.44
63395;BME280;49531;-34.520;150.798;2023-08-08T05:25:56;102061.00;;;20.47;46.55
63395;BME280;49531;-34.520;150.798;2023-08-08T05:28:24;102062.44;;;20.49;46.63
63395;BME280;49531;-34.520;150.798;2023-08-08T05:30:51;102064.56;;;20.47;46.52
63395;BME280;49531;-34.520;150.798;2023-08-08T05:33:18;102070.81;;;20.48;46.75
63395;BME280;49531;-34.520;150.798;2023-08-08T05:35:45;102062.91;;;20.46;46.55
63395;BME280;49531;-34.520;150.798;2023-08-08T05:38:12;102067.28;;;20.47;46.67
63395;BME280;49531;-34.520;150.798;2023-08-08T05:40:39;102065.59;;;20.46;46.87
63395;BME280;49531;-34.520;150.798;2023-08-08T05:43:06;102067.28;;;20.47;46.70
63395;BME280;49531;-34.520;150.798;2023-08-08T05:45:34;102066.66;;;20.45;47.05
63395;BME280;49531;-34.520;150.798;2023-08-08T05:48:01;102067.94;;;20.43;47.03
63395;BME280;49531;-34.520;150.798;2023-08-08T05:50:28;102067.13;;;20.42;46.96
63395;BME280;49531;-34.520;150.798;2023-08-08T05:52:55;102071.38;;;20.38;47.28
63395;BME280;49531;-34.520;150.798;2023-08-08T05:55:22;102071.94;;;20.40;47.21
63395;BME280;49531;-34.520;150.798;2023-08-08T05:57:49;102077.16;;;20.42;47.24
63395;BME280;49531;-34.520;150.798;2023-08-08T06:00:17;102081.16;;;20.39;47.20
63395;BME280;49531;-34.520;150.798;2023-08-08T06:02:44;102079.03;;;20.41;47.25
63395;BME280;49531;-34.520;150.798;2023-08-08T06:05:12;102078.47;;;20.39;47.31
63395;BME280;49531;-34.520;150.798;2023-08-08T06:07:39;102081.41;;;20.38;47.57
63395;BME280;49531;-34.520;150.798;2023-08-08T06:10:07;102089.53;;;20.38;47.42
63395;BME280;49531;-34.520;150.798;2023-08-08T06:12:34;102088.47;;;20.39;47.34
63395;BME280;49531;-34.520;150.798;2023-08-08T06:15:01;102091.19;;;20.39;47.54
63395;BME280;49531;-34.520;150.798;2023-08-08T06:17:30;102090.94;;;20.40;47.42
63395;BME280;49531;-34.520;150.798;2023-08-08T06:19:57;102091.78;;;20.41;47.47
63395;BME280;49531;-34.520;150.798;2023-08-08T06:22:24;102088.00;;;20.42;47.42
63395;BME280;49531;-34.520;150.798;2023-08-08T06:24:51;102089.31;;;20.39;47.22
63395;BME280;49531;-34.520;150.798;2023-08-08T06:27:21;102099.09;;;20.40;47.22
63395;BME280;49531;-34.520;150.798;2023-08-08T06:29:49;102099.69;;;20.42;47.32
63395;BME280;49531;-34.520;150.798;2023-08-08T06:32:16;102103.47;;;20.41;47.21
63395;BME280;49531;-34.520;150.798;2023-08-08T06:34:43;102098.31;;;20.33;47.20
63395;BME280;49531;-34.520;150.798;2023-08-08T06:37:10;102106.47;;;20.33;47.27
63395;BME280;49531;-34.520;150.798;2023-08-08T06:39:37;102106.25;;;20.35;47.36
63395;BME280;49531;-34.520;150.798;2023-08-08T06:42:06;102115.06;;;20.30;47.20
63395;BME280;49531;-34.520;150.798;2023-08-08T06:44:40;102111.72;;;20.28;47.23
63395;BME280;49531;-34.520;150.798;2023-08-08T06:47:07;102113.63;;;20.27;47.16
63395;BME280;49531;-34.520;150.798;2023-08-08T06:49:34;102114.88;;;20.25;47.39
63395;BME280;49531;-34.520;150.798;2023-08-08T06:52:01;102120.31;;;20.25;47.31
63395;BME280;49531;-34.520;150.798;2023-08-08T06:54:29;102122.41;;;20.23;47.35
63395;BME280;49531;-34.520;150.798;2023-08-08T06:56:56;102129.94;;;20.21;47.40
63395;BME280;49531;-34.520;150.798;2023-08-08T06:59:23;102118.50;;;20.19;47.44
63395;BME280;49531;-34.520;150.798;2023-08-08T07:01:51;102116.22;;;20.16;47.52
63395;BME280;49531;-34.520;150.798;2023-08-08T07:04:18;102121.66;;;20.16;47.46
63395;BME280;49531;-34.520;150.798;2023-08-08T07:06:45;102123.38;;;20.10;47.97
63395;BME280;49531;-34.520;150.798;2023-08-08T07:09:12;102122.69;;;19.96;48.34
63395;BME280;49531;-34.520;150.798;2023-08-08T07:11:40;102129.78;;;19.97;48.54
63395;BME280;49531;-34.520;150.798;2023-08-08T07:14:07;102123.22;;;20.05;48.64
63395;BME280;49531;-34.520;150.798;2023-08-08T07:16:34;102130.41;;;20.18;48.47
63395;BME280;49531;-34.520;150.798;2023-08-08T07:19:01;102134.09;;;20.23;48.33
63395;BME280;49531;-34.520;150.798;2023-08-08T07:21:29;102128.63;;;20.30;48.18
63395;BME280;49531;-34.520;150.798;2023-08-08T07:23:56;102129.22;;;20.32;48.04
63395;BME280;49531;-34.520;150.798;2023-08-08T07:26:24;102132.09;;;20.37;47.74
63395;BME280;49531;-34.520;150.798;2023-08-08T07:28:51;102129.38;;;20.37;47.97
63395;BME280;49531;-34.520;150.798;2023-08-08T07:31:19;102133.53;;;20.40;47.98
63395;BME280;49531;-34.520;150.798;2023-08-08T07:33:46;102130.59;;;20.41;47.84
63395;BME280;49531;-34.520;150.798;2023-08-08T07:36:13;102134.97;;;20.42;47.88
63395;BME280;49531;-34.520;150.798;2023-08-08T07:38:40;102145.97;;;20.47;47.84
63395;BME280;49531;-34.520;150.798;2023-08-08T07:41:07;102137.84;;;20.47;47.84
63395;BME280;49531;-34.520;150.798;2023-08-08T07:43:34;102142.22;;;20.48;47.77
63395;BME280;49531;-34.520;150.798;2023-08-08T07:46:01;102132.41;;;20.47;47.70
63395;BME280;49531;-34.520;150.798;2023-08-08T07:48:28;102135.56;;;20.44;47.75
63395;BME280;49531;-34.520;150.798;2023-08-08T07:50:55;102137.63;;;20.49;47.74
63395;BME280;49531;-34.520;150.798;2023-08-08T07:53:22;102144.47;;;20.51;47.67
63395;BME280;49531;-34.520;150.798;2023-08-08T07:55:49;102148.84;;;20.52;47.58
63395;BME280;49531;-34.520;150.798;2023-08-08T07:58:16;102151.34;;;20.54;47.56
63395;BME280;49531;-34.520;150.798;2023-08-08T08:00:43;102144.03;;;20.54;47.56
63395;BME280;49531;-34.520;150.798;2023-08-08T08:03:11;102137.53;;;20.55;47.41
63395;BME280;49531;-34.520;150.798;2023-08-08T08:05:38;102147.34;;;20.56;47.53
63395;BME280;49531;-34.520;150.798;2023-08-08T08:08:05;102143.81;;;20.56;47.48
63395;BME280;49531;-34.520;150.798;2023-08-08T08:10:32;102148.41;;;20.55;47.43
63395;BME280;49531;-34.520;150.798;2023-08-08T08:12:59;102141.31;;;20.54;47.39
63395;BME280;49531;-34.520;150.798;2023-08-08T08:15:26;102154.06;;;20.54;47.39
63395;BME280;49531;-34.520;150.798;2023-08-08T08:17:54;102152.19;;;20.54;47.44
63395;BME280;49531;-34.520;150.798;2023-08-08T08:20:21;102151.56;;;20.52;47.49
63395;BME280;49531;-34.520;150.798;2023-08-08T08:22:48;102158.88;;;20.52;47.55
63395;BME280;49531;-34.520;150.798;2023-08-08T08:25:15;102166.19;;;20.51;47.42
63395;BME280;49531;-34.520;150.798;2023-08-08T08:27:42;102158.06;;;20.51;47.33
63395;BME280;49531;-34.520;150.798;2023-08-08T08:30:10;102162.66;;;20.51;47.38
63395;BME280;49531;-34.520;150.798;2023-08-08T08:32:40;102161.81;;;20.50;47.46
63395;BME280;49531;-34.520;150.798;2023-08-08T08:35:08;102162.03;;;20.49;47.26
63395;BME280;49531;-34.520;150.798;2023-08-08T08:37:35;102159.56;;;20.47;47.12
63395;BME280;49531;-34.520;150.798;2023-08-08T08:40:02;102165.81;;;20.48;47.19
63395;BME280;49531;-34.520;150.798;2023-08-08T08:42:32;102171.47;;;20.46;47.23
63395;BME280;49531;-34.520;150.798;2023-08-08T08:45:03;102173.56;;;20.44;47.37
63395;BME280;49531;-34.520;150.798;2023-08-08T08:47:31;102180.06;;;20.43;47.31
63395;BME280;49531;-34.520;150.798;2023-08-08T08:50:00;102179.44;;;20.41;47.30
63395;BME280;49531;-34.520;150.798;2023-08-08T08:52:29;102186.53;;;20.42;47.39
63395;BME280;49531;-34.520;150.798;2023-08-08T08:54:57;102186.53;;;20.42;47.24
63395;BME280;49531;-34.520;150.798;2023-08-08T08:57:24;102192.78;;;20.43;47.16
63395;BME280;49531;-34.520;150.798;2023-08-08T08:59:52;102192.44;;;20.39;47.31
63395;BME280;49531;-34.520;150.798;2023-08-08T09:02:19;102187.00;;;20.39;47.37
63395;BME280;49531;-34.520;150.798;2023-08-08T09:04:46;102190.13;;;20.36;47.43
63395;BME280;49531;-34.520;150.798;2023-08-08T09:07:15;102198.91;;;20.38;47.35
63395;BME280;49531;-34.520;150.798;2023-08-08T09:09:43;102199.34;;;20.35;47.29
63395;BME280;49531;-34.520;150.798;2023-08-08T09:12:10;102198.28;;;20.36;47.33
63395;BME280;49531;-34.520;150.798;2023-08-08T09:14:55;102204.75;;;20.35;47.27
63395;BME280;49531;-34.520;150.798;2023-08-08T09:17:25;102208.97;;;20.31;47.40
63395;BME280;49531;-34.520;150.798;2023-08-08T09:19:54;102210.41;;;20.34;47.31
63395;BME280;49531;-34.520;150.798;2023-08-08T09:22:21;102206.25;;;20.31;47.20
63395;BME280;49531;-34.520;150.798;2023-08-08T09:24:53;102190.31;;;20.16;47.32
63395;BME280;49531;-34.520;150.798;2023-08-08T09:27:20;102208.97;;;20.31;47.30
63395;BME280;49531;-34.520;150.798;2023-08-08T09:29:50;102214.84;;;20.28;47.26
63395;BME280;49531;-34.520;150.798;2023-08-08T09:32:20;102219.44;;;20.27;47.29
63395;BME280;49531;-34.520;150.798;2023-08-08T09:34:51;102226.31;;;20.30;47.40
63395;BME280;49531;-34.520;150.798;2023-08-08T09:37:19;102218.59;;;20.27;47.31
63395;BME280;49531;-34.520;150.798;2023-08-08T09:39:58;102225.31;;;20.24;47.35
63395;BME280;49531;-34.520;150.798;2023-08-08T09:42:26;102238.66;;;20.26;47.31
63395;BME280;49531;-34.520;150.798;2023-08-08T09:45:17;102238.03;;;20.24;47.32
63395;BME280;49531;-34.520;150.798;2023-08-08T09:47:46;102225.75;;;20.21;47.42
63395;BME280;49531;-34.520;150.798;2023-08-08T09:50:24;102232.22;;;20.20;47.52
63395;BME280;49531;-34.520;150.798;2023-08-08T09:52:54;102234.31;;;20.18;47.53
63395;BME280;49531;-34.520;150.798;2023-08-08T09:55:22;102235.16;;;20.19;47.33
63395;BME280;49531;-34.520;150.798;2023-08-08T09:57:51;102236.00;;;20.19;47.39
63395;BME280;49531;-34.520;150.798;2023-08-08T10:00:19;102239.75;;;20.18;47.45
63395;BME280;49531;-34.520;150.798;2023-08-08T10:02:47;102239.16;;;20.16;47.37
63395;BME280;49531;-34.520;150.798;2023-08-08T10:05:15;102236.66;;;20.15;47.38
63395;BME280;49531;-34.520;150.798;2023-08-08T10:07:42;102245.84;;;20.14;47.35
63395;BME280;49531;-34.520;150.798;2023-08-08T10:10:10;102251.25;;;20.14;47.47
63395;BME280;49531;-34.520;150.798;2023-08-08T10:12:39;102249.00;;;20.11;47.44
63395;BME280;49531;-34.520;150.798;2023-08-08T10:15:09;102248.16;;;20.10;47.39
63395;BME280;49531;-34.520;150.798;2023-08-08T10:17:38;102254.03;;;20.07;47.50
63395;BME280;49531;-34.520;150.798;2023-08-08T10:20:08;102257.78;;;20.06;47.48
63395;BME280;49531;-34.520;150.798;2023-08-08T10:22:42;102258.63;;;20.07;47.61
63395;BME280;49531;-34.520;150.798;2023-08-08T10:25:22;102259.06;;;20.04;47.51
63395;BME280;49531;-34.520;150.798;2023-08-08T10:27:50;102258.44;;;20.02;47.48
63395;BME280;49531;-34.520;150.798;2023-08-08T10:30:17;102259.88;;;20.04;47.41
63395;BME280;49531;-34.520;150.798;2023-08-08T10:32:45;102260.31;;;20.01;47.35
63395;BME280;49531;-34.520;150.798;2023-08-08T10:35:13;102265.38;;;19.97;47.74
63395;BME280;49531;-34.520;150.798;2023-08-08T10:37:40;102270.81;;;19.97;47.57
63395;BME280;49531;-34.520;150.798;2023-08-08T10:40:18;102259.78;;;19.92;47.64
63395;BME280;49531;-34.520;150.798;2023-08-08T10:42:46;102265.81;;;19.94;47.56
63395;BME280;49531;-34.520;150.798;2023-08-08T10:45:15;102265.22;;;19.92;47.47
63395;BME280;49531;-34.520;150.798;2023-08-08T10:47:43;102262.09;;;19.89;47.60
63395;BME280;49531;-34.520;150.798;2023-08-08T10:50:15;102259.38;;;19.89;47.81
63395;BME280;49531;-34.520;150.798;2023-08-08T10:52:54;102262.75;;;19.84;47.87
63395;BME280;49531;-34.520;150.798;2023-08-08T10:55:33;102256.72;;;19.82;47.80
63395;BME280;49531;-34.520;150.798;2023-08-08T10:58:08;102255.47;;;19.78;47.83
63395;BME280;49531;-34.520;150.798;2023-08-08T11:00:46;102255.88;;;19.82;47.87
63395;BME280;49531;-34.520;150.798;2023-08-08T11:03:15;102251.72;;;19.79;47.76
63395;BME280;49531;-34.520;150.798;2023-08-08T11:05:42;102258.19;;;19.78;47.70
63395;BME280;49531;-34.520;150.798;2023-08-08T11:08:12;102255.69;;;19.77;47.75
63395;BME280;49531;-34.520;150.798;2023-08-08T11:10:40;102248.00;;;19.74;47.80
63395;BME280;49531;-34.520;150.798;2023-08-08T11:13:08;102256.97;;;19.74;47.75
63395;BME280;49531;-34.520;150.798;2023-08-08T11:15:36;102254.69;;;19.71;47.84
63395;BME280;49531;-34.520;150.798;2023-08-08T11:18:04;102252.84;;;19.65;48.14
63395;BME280;49531;-34.520;150.798;2023-08-08T11:20:33;102259.75;;;19.61;48.03
63395;BME280;49531;-34.520;150.798;2023-08-08T11:23:00;102263.06;;;19.63;48.04
63395;BME280;49531;-34.520;150.798;2023-08-08T11:25:30;102263.50;;;19.60;47.98
63395;BME280;49531;-34.520;150.798;2023-08-08T11:27:58;102262.66;;;19.59;48.04
63395;BME280;49531;-34.520;150.798;2023-08-08T11:30:29;102255.00;;;19.56;48.04
63395;BME280;49531;-34.520;150.798;2023-08-08T11:32:56;102251.03;;;19.59;47.89
63395;BME280;49531;-34.520;150.798;2023-08-08T11:35:25;102257.25;;;19.59;47.94
63395;BME280;49531;-34.520;150.798;2023-08-08T11:37:55;102256.66;;;19.57;47.82
63395;BME280;49531;-34.520;150.798;2023-08-08T11:40:25;102260.19;;;19.58;47.79
63395;BME280;49531;-34.520;150.798;2023-08-08T11:42:56;102256.03;;;19.55;47.84
63395;BME280;49531;-34.520;150.798;2023-08-08T11:45:24;102257.09;;;19.54;47.97
63395;BME280;49531;-34.520;150.798;2023-08-08T11:47:53;102255.44;;;19.53;47.81
63395;BME280;49531;-34.520;150.798;2023-08-08T11:50:22;102248.56;;;19.51;47.84
63395;BME280;49531;-34.520;150.798;2023-08-08T11:52:51;102258.53;;;19.50;47.86
63395;BME280;49531;-34.520;150.798;2023-08-08T11:55:19;102256.03;;;19.49;48.00
63395;BME280;49531;-34.520;150.798;2023-08-08T11:57:49;102256.03;;;19.49;47.93
63395;BME280;49531;-34.520;150.798;2023-08-08T12:00:16;102251.25;;;19.44;47.94
63395;BME280;49531;-34.520;150.798;2023-08-08T12:02:44;102247.72;;;19.44;47.99
63395;BME280;49531;-34.520;150.798;2023-08-08T12:05:13;102247.94;;;19.42;47.86
63395;BME280;49531;-34.520;150.798;2023-08-08T12:07:48;102252.75;;;19.40;48.02
63395;BME280;49531;-34.520;150.798;2023-08-08T12:10:17;102244.22;;;19.37;48.04
63395;BME280;49531;-34.520;150.798;2023-08-08T12:12:45;102232.31;;;19.38;47.92
63395;BME280;49531;-34.520;150.798;2023-08-08T12:15:13;102232.75;;;19.35;47.87
63395;BME280;49531;-34.520;150.798;2023-08-08T12:17:42;102241.94;;;19.33;48.02
63395;BME280;49531;-34.520;150.798;2023-08-08T12:20:09;102233.19;;;19.31;48.22
63395;BME280;49531;-34.520;150.798;2023-08-08T12:22:36;102230.47;;;19.31;47.97
63395;BME280;49531;-34.520;150.798;2023-08-08T12:25:03;102231.72;;;19.29;48.12